Capitol Logistics 938


OLBA
Rafic Hariri International Airport
Beirut, LB
EBLG
Liège Airport
Liege, BE

Activity Log

Date Flight Route Aircraft Duration
10/30/2019 CPX938 Not Available B738 4h 46m
10/03/2019 CPX938 Not Available B738 4h 57m

Route Details

Aircraft Information
Primary: Boeing 737-800BCF
Backup: Not Available
Route Data
Distance: 1658nm
Sched. Duration: 4h 29m
Avg. Duration: 4h 51m (+22m)
Times Flown: 2
Recm'd Route: Not Available
Planned Altitude: 36,000ft
Origin Wx: OLBA 261200Z 35012KT 6000 SCT026 24/16 Q1016 NOSIG
Dest. Wx: EBLG 261320Z 04009KT 340V080 CAVOK 22/07 Q1034 NOSIG
Notes:

Financial History
Total Freight: 79,200lbs
Average Load: 39,600lbs/flt
Fuel Used: 47,617lbs
Avg. Fuel Used: 23,809lbs/flt
Fuel Expense: $30,951
Avg. Fuel Expense: $15,476
Avg. Fuel Cost: $0.65/lbs
Total Gross Income: $1,018,512
Pilot Pay: $458
Total Expenses: $110,103
Total Revenue: $874,937
Average Revenue: $509,256.00